Time;durP1;ratioP1;P1;durP2;ratioP2;P2;SDS_P1;SDS_P2;PMS_P1;PMS_P2;Temp;Humidity;BMP_temperature;BMP_pressure;BME280_temperature;BME280_humidity;BME280_pressure;Samples;Min_cycle;Max_cycle;Signal;HPM_P1;HPM_P2
2023/04/12 00:00:35;;;;;;;17.92;2.75;;;6.80;99.90;;;;;;5056230;28;20464;-77
2023/04/12 00:03:06;;;;;;;11.55;2.30;;;7.00;99.90;;;;;;5050178;28;20143;-78
2023/04/12 00:05:33;;;;;;;10.82;2.40;;;7.10;99.90;;;;;;5068600;28;20044;-78
2023/04/12 00:08:03;;;;;;;12.57;3.05;;;7.10;99.90;;;;;;5051606;28;20036;-78
2023/04/12 00:10:29;;;;;;;13.35;2.80;;;6.90;99.90;;;;;;5050460;28;20044;-77
2023/04/12 00:12:55;;;;;;;13.93;2.97;;;6.90;99.90;;;;;;5038367;28;20119;-77
2023/04/12 00:15:21;;;;;;;14.70;3.30;;;6.90;99.90;;;;;;5069042;28;20040;-79
2023/04/12 00:17:46;;;;;;;12.13;3.33;;;6.90;99.90;;;;;;5045656;28;20579;-78
2023/04/12 00:20:15;;;;;;;11.00;2.60;;;6.90;99.90;;;;;;5053871;28;20068;-78
2023/04/12 00:22:41;;;;;;;11.32;2.70;;;6.90;99.90;;;;;;5067511;28;20432;-78
2023/04/12 00:25:07;;;;;;;14.73;3.17;;;7.00;99.90;;;;;;5040773;28;20068;-78
2023/04/12 00:27:34;;;;;;;10.32;2.60;;;6.90;99.90;;;;;;5029596;28;20517;-78
2023/04/12 00:30:00;;;;;;;12.30;2.63;;;7.00;99.90;;;;;;5021885;28;20049;-78
2023/04/12 00:32:26;;;;;;;12.65;2.90;;;7.10;99.90;;;;;;5051714;28;20036;-79
2023/04/12 00:34:52;;;;;;;13.38;3.10;;;7.00;99.90;;;;;;5050445;28;20094;-77
2023/04/12 00:37:18;;;;;;;11.32;2.80;;;7.00;99.90;;;;;;5046282;28;20125;-77
2023/04/12 00:39:43;;;;;;;9.95;2.90;;;7.10;99.90;;;;;;5037931;28;20186;-77
2023/04/12 00:42:09;;;;;;;14.80;3.20;;;7.10;99.90;;;;;;5031279;28;20041;-78
2023/04/12 00:44:35;;;;;;;15.88;3.25;;;7.10;99.90;;;;;;5025555;28;20621;-78
2023/04/12 00:47:02;;;;;;;12.20;2.72;;;7.10;99.90;;;;;;5048906;28;20124;-78
2023/04/12 00:49:29;;;;;;;13.18;3.47;;;7.20;99.90;;;;;;5041673;28;20044;-78
2023/04/12 00:52:05;;;;;;;13.07;3.13;;;7.20;99.90;;;;;;5067626;28;20523;-78
2023/04/12 00:54:32;;;;;;;10.55;2.78;;;7.20;99.90;;;;;;5067462;28;20402;-79
2023/04/12 00:56:59;;;;;;;14.93;3.20;;;7.20;99.90;;;;;;5058033;28;20101;-78
2023/04/12 00:59:25;;;;;;;11.57;2.70;;;7.30;99.90;;;;;;5034400;28;20045;-78
2023/04/12 01:01:51;;;;;;;11.57;2.90;;;7.30;99.90;;;;;;5066320;28;20036;-78
2023/04/12 01:04:17;;;;;;;12.55;2.90;;;7.30;99.90;;;;;;5049710;28;20051;-78
2023/04/12 01:07:04;;;;;;;11.82;2.97;;;7.40;99.90;;;;;;5066993;28;20036;-78
2023/04/12 01:10:00;;;;;;;10.73;2.95;;;7.30;99.90;;;;;;5039124;28;20051;-78
2023/04/12 01:12:43;;;;;;;8.27;2.47;;;7.40;99.90;;;;;;5064863;28;20050;-79
2023/04/12 01:15:11;;;;;;;13.38;2.97;;;7.40;99.90;;;;;;5049020;28;20036;-78
2023/04/12 01:17:46;;;;;;;10.15;2.95;;;7.40;99.90;;;;;;5058468;28;20495;-78
2023/04/12 01:20:22;;;;;;;12.35;2.90;;;7.40;99.90;;;;;;5034988;28;20591;-78
2023/04/12 01:23:07;;;;;;;11.93;2.72;;;7.50;99.90;;;;;;5050661;28;20090;-78
2023/04/12 01:25:47;;;;;;;10.18;2.75;;;7.50;99.90;;;;;;5060929;28;20106;-78
2023/04/12 01:28:22;;;;;;;13.25;3.00;;;7.50;99.90;;;;;;5077756;28;20064;-78
2023/04/12 01:30:51;;;;;;;11.73;3.10;;;7.50;99.90;;;;;;5053784;28;20040;-79
2023/04/12 01:33:17;;;;;;;12.30;2.72;;;7.60;99.90;;;;;;5045414;28;20044;-76
2023/04/12 01:35:45;;;;;;;19.45;3.22;;;7.70;99.90;;;;;;5056516;28;20143;-78
2023/04/12 01:38:11;;;;;;;10.82;2.72;;;7.60;99.90;;;;;;5050611;28;20037;-78
2023/04/12 01:40:39;;;;;;;12.25;2.90;;;7.60;99.90;;;;;;5041970;28;20049;-78
2023/04/12 01:43:09;;;;;;;11.40;2.67;;;7.60;99.90;;;;;;5064329;28;20040;-78
2023/04/12 01:45:35;;;;;;;9.93;2.88;;;7.60;99.90;;;;;;5060306;28;20128;-78
2023/04/12 01:48:02;;;;;;;9.20;2.63;;;7.60;99.90;;;;;;5064106;28;20053;-78
2023/04/12 01:50:56;;;;;;;14.10;2.88;;;7.60;99.90;;;;;;5060360;28;20509;-78
2023/04/12 01:53:49;;;;;;;12.57;3.22;;;7.60;99.90;;;;;;5035218;28;20049;-79
2023/04/12 01:56:17;;;;;;;10.10;2.85;;;7.60;99.90;;;;;;5057516;28;20036;-79
2023/04/12 01:58:46;;;;;;;15.68;3.95;;;7.60;99.90;;;;;;5063791;28;20040;-79
2023/04/12 02:01:14;;;;;;;12.60;3.15;;;7.60;99.90;;;;;;5055234;28;20124;-79
2023/04/12 02:03:44;;;;;;;12.25;3.03;;;7.70;99.90;;;;;;5050812;28;20347;-79
2023/04/12 02:06:10;;;;;;;11.35;2.70;;;7.70;99.90;;;;;;5065743;28;20055;-79
2023/04/12 02:08:36;;;;;;;11.52;3.17;;;7.70;99.90;;;;;;5049504;28;20053;-79
2023/04/12 02:11:11;;;;;;;12.23;3.20;;;7.70;99.90;;;;;;5058352;28;20033;-79
2023/04/12 02:13:37;;;;;;;10.98;2.70;;;7.80;99.90;;;;;;5032153;28;20112;-79
2023/04/12 02:16:03;;;;;;;14.35;2.92;;;7.80;99.90;;;;;;5055219;28;20111;-79
2023/04/12 02:18:29;;;;;;;11.38;2.92;;;7.80;99.90;;;;;;5021661;28;20043;-79
2023/04/12 02:20:55;;;;;;;12.43;3.33;;;7.80;99.90;;;;;;5041116;28;20044;-79
2023/04/12 02:23:21;;;;;;;13.10;2.97;;;7.80;99.90;;;;;;5043100;28;20052;-79
2023/04/12 02:25:47;;;;;;;11.43;2.83;;;7.80;99.90;;;;;;5066568;28;20500;-79
2023/04/12 02:28:12;;;;;;;11.63;3.10;;;7.80;99.90;;;;;;5020086;28;20037;-79
2023/04/12 02:30:40;;;;;;;10.70;3.22;;;7.80;99.90;;;;;;5050194;28;20036;-79
2023/04/12 02:33:08;;;;;;;12.20;3.00;;;7.90;99.90;;;;;;5052842;28;20076;-79
2023/04/12 02:35:35;;;;;;;12.60;3.28;;;7.90;99.90;;;;;;5055463;28;20048;-79
2023/04/12 02:38:02;;;;;;;12.90;2.70;;;7.90;99.90;;;;;;5057668;28;20520;-79
2023/04/12 02:40:29;;;;;;;14.93;3.05;;;7.90;99.90;;;;;;5043870;28;20043;-79
2023/04/12 02:42:55;;;;;;;11.82;2.83;;;8.00;99.90;;;;;;5070984;28;20066;-79
2023/04/12 02:45:21;;;;;;;9.88;2.60;;;8.00;99.90;;;;;;5054077;28;20549;-79
2023/04/12 02:47:46;;;;;;;9.80;3.10;;;8.00;99.90;;;;;;5070018;28;20084;-79
2023/04/12 02:50:12;;;;;;;13.23;3.28;;;8.00;99.90;;;;;;5070040;28;20036;-79
2023/04/12 02:52:38;;;;;;;10.02;2.70;;;8.00;99.90;;;;;;5067760;28;20135;-79
2023/04/12 02:55:04;;;;;;;13.85;3.13;;;8.00;99.90;;;;;;5021049;28;20033;-79
2023/04/12 02:57:29;;;;;;;9.13;2.63;;;8.00;99.90;;;;;;5022973;28;20040;-78
2023/04/12 02:59:55;;;;;;;12.52;2.92;;;8.00;99.90;;;;;;5053762;28;20044;-78
2023/04/12 03:02:22;;;;;;;10.57;3.08;;;7.90;99.90;;;;;;5036592;28;20686;-78
2023/04/12 03:04:49;;;;;;;12.68;3.20;;;7.90;99.90;;;;;;5051118;28;20450;-78
2023/04/12 03:07:19;;;;;;;9.65;3.00;;;7.90;99.90;;;;;;5059219;28;20592;-78
2023/04/12 03:09:46;;;;;;;12.50;3.63;;;7.90;99.90;;;;;;5065171;28;20556;-77
2023/04/12 03:12:14;;;;;;;9.07;2.55;;;7.90;99.90;;;;;;5047705;28;20068;-78
2023/04/12 03:14:39;;;;;;;9.57;2.80;;;7.90;99.90;;;;;;5051666;28;20120;-79
2023/04/12 03:17:05;;;;;;;10.98;2.80;;;8.00;99.90;;;;;;5037261;28;20134;-78
2023/04/12 03:19:33;;;;;;;11.05;2.50;;;8.00;99.90;;;;;;5050809;28;20185;-79
2023/04/12 03:22:00;;;;;;;12.20;2.95;;;8.00;99.90;;;;;;5053054;28;20347;-78
2023/04/12 03:24:26;;;;;;;8.73;2.60;;;8.00;99.90;;;;;;5059481;28;20063;-77
2023/04/12 03:26:53;;;;;;;10.73;2.30;;;8.10;99.90;;;;;;5072132;28;20036;-77
2023/04/12 03:29:19;;;;;;;12.07;2.95;;;8.10;99.90;;;;;;5066953;28;20071;-78
2023/04/12 03:31:45;;;;;;;10.98;2.55;;;8.10;99.90;;;;;;5069707;28;20036;-78
2023/04/12 03:34:11;;;;;;;9.23;2.40;;;8.10;99.90;;;;;;5058309;28;20036;-78
2023/04/12 03:36:37;;;;;;;8.25;2.28;;;8.10;99.90;;;;;;5057800;28;20051;-78
2023/04/12 03:39:03;;;;;;;8.77;2.53;;;8.20;99.90;;;;;;5054299;28;20040;-77
2023/04/12 03:41:29;;;;;;;8.35;2.10;;;8.20;99.90;;;;;;5049787;28;20039;-77
2023/04/12 03:43:55;;;;;;;10.20;2.47;;;8.20;99.90;;;;;;5038387;28;20044;-78
2023/04/12 03:46:21;;;;;;;10.80;2.40;;;8.20;99.90;;;;;;5034880;28;20098;-78
2023/04/12 03:48:48;;;;;;;8.05;1.92;;;8.20;99.90;;;;;;5040769;28;20041;-78
2023/04/12 03:51:14;;;;;;;6.95;2.05;;;8.20;99.90;;;;;;5050552;28;20081;-78
2023/04/12 03:53:40;;;;;;;9.35;2.33;;;8.30;99.90;;;;;;5045442;28;20435;-78
2023/04/12 03:56:06;;;;;;;9.02;2.40;;;8.20;99.90;;;;;;5054813;28;20041;-78
2023/04/12 03:58:32;;;;;;;6.85;2.10;;;8.20;99.90;;;;;;5045061;28;20037;-78
2023/04/12 04:01:05;;;;;;;7.20;2.00;;;8.30;99.90;;;;;;5067066;28;20130;-77
2023/04/12 04:03:34;;;;;;;8.07;2.20;;;8.10;99.90;;;;;;5065940;28;20029;-77
2023/04/12 04:06:01;;;;;;;10.73;2.50;;;8.10;99.90;;;;;;5046459;28;20037;-77
2023/04/12 04:08:31;;;;;;;11.52;2.95;;;8.10;99.90;;;;;;5035535;28;20048;-77
2023/04/12 04:10:58;;;;;;;9.27;2.55;;;8.10;99.90;;;;;;5043602;28;20036;-77
2023/04/12 04:13:24;;;;;;;9.60;2.78;;;8.10;99.90;;;;;;5058945;28;20113;-78
2023/04/12 04:16:09;;;;;;;9.85;2.70;;;8.10;99.90;;;;;;5061400;28;20044;-78
2023/04/12 04:18:35;;;;;;;12.88;2.47;;;8.10;99.90;;;;;;5038604;28;20516;-78
2023/04/12 04:21:01;;;;;;;10.80;2.58;;;8.00;99.90;;;;;;5067319;28;20049;-78
2023/04/12 04:23:27;;;;;;;13.65;2.78;;;8.00;99.90;;;;;;5045681;28;20044;-78
2023/04/12 04:25:54;;;;;;;9.50;2.40;;;8.00;99.90;;;;;;5061551;28;20044;-78
2023/04/12 04:28:19;;;;;;;9.38;2.38;;;8.00;99.90;;;;;;5032934;28;20044;-78
2023/04/12 04:30:45;;;;;;;9.80;2.67;;;8.00;99.90;;;;;;5060218;28;20052;-78
2023/04/12 04:33:11;;;;;;;11.15;2.75;;;8.00;99.90;;;;;;5033288;28;20041;-78
2023/04/12 04:35:42;;;;;;;10.10;3.17;;;8.00;99.90;;;;;;5042077;28;20056;-78
2023/04/12 04:38:09;;;;;;;11.05;2.90;;;8.00;99.90;;;;;;5045948;28;20041;-78
2023/04/12 04:40:37;;;;;;;8.20;2.80;;;7.90;99.90;;;;;;5066290;28;20047;-78
2023/04/12 04:43:03;;;;;;;12.10;3.72;;;7.90;99.90;;;;;;5068877;28;20113;-78
2023/04/12 04:45:31;;;;;;;11.90;3.33;;;7.90;99.90;;;;;;5058780;28;20390;-78
2023/04/12 04:47:56;;;;;;;12.63;3.50;;;7.90;99.90;;;;;;5031124;28;20128;-78
2023/04/12 04:50:23;;;;;;;11.32;3.20;;;7.90;99.90;;;;;;5051045;28;20197;-78
2023/04/12 04:52:50;;;;;;;8.95;2.97;;;7.80;99.90;;;;;;5056372;28;20044;-79
2023/04/12 04:55:20;;;;;;;13.70;3.63;;;7.80;99.90;;;;;;5052524;28;20101;-79
2023/04/12 04:57:46;;;;;;;12.68;3.42;;;7.80;99.90;;;;;;5063198;28;20048;-79
2023/04/12 05:00:12;;;;;;;9.90;3.22;;;7.80;99.90;;;;;;5066347;28;20494;-79
2023/04/12 05:02:41;;;;;;;11.05;3.38;;;7.80;99.90;;;;;;5048424;28;20362;-77
2023/04/12 05:05:09;;;;;;;12.15;3.60;;;7.80;99.90;;;;;;5050060;28;20048;-77
2023/04/12 05:07:35;;;;;;;12.52;3.58;;;7.80;99.90;;;;;;5054237;28;20105;-77
2023/04/12 05:10:02;;;;;;;12.85;3.53;;;7.70;99.90;;;;;;5052321;28;20137;-76
2023/04/12 05:12:28;;;;;;;12.73;3.88;;;7.70;99.90;;;;;;5048526;28;20516;-76
2023/04/12 05:14:54;;;;;;;9.77;3.47;;;7.70;99.90;;;;;;5041923;28;20032;-77
2023/04/12 05:17:20;;;;;;;11.90;3.10;;;7.90;99.90;;;;;;5054663;28;20072;-77
2023/04/12 05:19:45;;;;;;;13.35;3.83;;;7.70;99.90;;;;;;5056814;28;20136;-77
2023/04/12 05:22:12;;;;;;;10.02;2.95;;;7.70;99.90;;;;;;5065041;28;20048;-77
2023/04/12 05:24:38;;;;;;;10.60;3.50;;;7.70;99.90;;;;;;5060142;28;20041;-77
2023/04/12 05:27:04;;;;;;;11.48;3.17;;;7.70;99.90;;;;;;5043866;28;20453;-77
2023/04/12 05:29:30;;;;;;;10.73;3.15;;;7.70;99.90;;;;;;5044430;28;20048;-77
2023/04/12 05:31:57;;;;;;;13.32;3.45;;;7.70;99.90;;;;;;5015607;28;20036;-77
2023/04/12 05:34:23;;;;;;;9.90;3.00;;;7.70;99.90;;;;;;5043977;28;20129;-77
2023/04/12 05:36:49;;;;;;;11.48;3.30;;;7.70;99.90;;;;;;5014376;28;20095;-77
2023/04/12 05:39:15;;;;;;;10.93;3.17;;;7.70;99.90;;;;;;5033949;28;20416;-77
2023/04/12 05:41:41;;;;;;;13.32;3.53;;;7.70;99.90;;;;;;5050815;28;20063;-77
2023/04/12 05:44:06;;;;;;;13.07;2.95;;;7.70;99.90;;;;;;5062204;28;20049;-77
2023/04/12 05:46:32;;;;;;;9.93;2.88;;;7.60;99.90;;;;;;5031374;28;20044;-76
2023/04/12 05:48:58;;;;;;;10.90;3.20;;;7.60;99.90;;;;;;5036517;28;20130;-77
2023/04/12 05:51:23;;;;;;;11.38;2.80;;;7.60;99.90;;;;;;5051251;28;20044;-77
2023/04/12 05:53:49;;;;;;;12.93;3.15;;;7.90;99.90;;;;;;5067109;28;20032;-77
2023/04/12 05:56:15;;;;;;;11.13;2.88;;;7.90;99.90;;;;;;5068142;28;20500;-77
2023/04/12 05:58:41;;;;;;;11.60;3.40;;;7.70;99.90;;;;;;5050954;28;20037;-78
2023/04/12 06:01:07;;;;;;;11.20;2.78;;;7.70;99.90;;;;;;5067956;28;20052;-77
2023/04/12 06:03:32;;;;;;;9.07;2.80;;;7.70;99.90;;;;;;5049791;28;20048;-77
2023/04/12 06:05:58;;;;;;;11.57;2.97;;;7.70;99.90;;;;;;5048678;28;20443;-77
2023/04/12 06:08:24;;;;;;;9.65;2.90;;;7.70;99.90;;;;;;5068890;28;20263;-77
2023/04/12 06:10:50;;;;;;;9.65;2.53;;;7.70;99.90;;;;;;5068062;28;20043;-77
2023/04/12 06:13:16;;;;;;;9.10;2.60;;;7.70;99.90;;;;;;5049529;28;20116;-77
2023/04/12 06:15:42;;;;;;;13.02;2.92;;;7.70;99.90;;;;;;5042744;28;20083;-77
2023/04/12 06:18:07;;;;;;;10.30;2.60;;;7.70;99.90;;;;;;5015027;28;20036;-77
2023/04/12 06:20:33;;;;;;;8.95;2.70;;;7.70;99.90;;;;;;5065024;28;20563;-77
2023/04/12 06:22:59;;;;;;;13.05;3.00;;;7.70;99.90;;;;;;5051053;28;20041;-77
2023/04/12 06:25:25;;;;;;;11.65;3.22;;;7.70;99.90;;;;;;5065228;28;20148;-78
2023/04/12 06:27:51;;;;;;;9.20;3.00;;;7.70;99.90;;;;;;5055952;28;20162;-78
2023/04/12 06:30:18;;;;;;;10.40;2.72;;;7.70;99.90;;;;;;5047320;28;20123;-78
2023/04/12 06:32:43;;;;;;;14.00;3.10;;;7.70;99.90;;;;;;5030918;28;20029;-78
2023/04/12 06:35:09;;;;;;;8.70;2.70;;;7.70;99.90;;;;;;5044125;28;20048;-78
2023/04/12 06:37:35;;;;;;;8.57;2.78;;;7.70;99.90;;;;;;5037542;28;20044;-78
2023/04/12 06:40:01;;;;;;;10.10;2.83;;;7.70;99.90;;;;;;5050727;28;20049;-77
2023/04/12 06:42:26;;;;;;;8.90;2.75;;;7.70;99.90;;;;;;5028306;28;20041;-77
2023/04/12 06:44:52;;;;;;;10.40;2.72;;;7.70;99.90;;;;;;5047852;28;20041;-77
2023/04/12 06:47:18;;;;;;;9.63;2.63;;;7.70;99.90;;;;;;5044971;28;20120;-77
2023/04/12 06:49:43;;;;;;;12.27;3.25;;;7.70;99.90;;;;;;5050871;28;20046;-76
2023/04/12 06:52:09;;;;;;;12.80;2.97;;;7.70;99.90;;;;;;5050478;28;20037;-76
2023/04/12 06:54:38;;;;;;;11.50;3.22;;;7.70;99.90;;;;;;5067300;28;20482;-77
2023/04/12 06:57:09;;;;;;;13.55;3.20;;;7.70;99.90;;;;;;5055197;28;20151;-77
2023/04/12 06:59:35;;;;;;;11.18;2.90;;;7.70;99.90;;;;;;5064463;28;20612;-77
2023/04/12 07:02:01;;;;;;;9.15;3.05;;;7.70;99.90;;;;;;5020836;28;20165;-77
2023/04/12 07:04:26;;;;;;;10.88;2.90;;;7.80;99.90;;;;;;5048762;28;20120;-77
2023/04/12 07:06:52;;;;;;;9.93;2.92;;;7.80;99.90;;;;;;5049169;28;20043;-77
2023/04/12 07:09:18;;;;;;;9.65;2.67;;;7.80;99.90;;;;;;5040658;28;20356;-77
2023/04/12 07:11:44;;;;;;;8.77;2.63;;;7.80;99.90;;;;;;5051791;28;20435;-77
2023/04/12 07:14:09;;;;;;;9.38;2.90;;;7.80;99.90;;;;;;5047359;28;20398;-77
2023/04/12 07:16:35;;;;;;;10.68;3.08;;;7.80;99.90;;;;;;5051059;28;20474;-77
2023/04/12 07:19:01;;;;;;;10.77;2.97;;;7.80;99.90;;;;;;5068901;28;20040;-77
2023/04/12 07:21:27;;;;;;;8.13;2.78;;;7.80;99.90;;;;;;5042382;28;20045;-77
2023/04/12 07:23:53;;;;;;;7.82;2.60;;;7.80;99.90;;;;;;5049164;28;20040;-77
2023/04/12 07:26:18;;;;;;;9.30;2.85;;;7.80;99.90;;;;;;5050409;28;20115;-77
2023/04/12 07:28:44;;;;;;;9.65;2.50;;;7.80;99.90;;;;;;5066563;28;20406;-77
2023/04/12 07:31:10;;;;;;;12.23;3.00;;;7.80;99.90;;;;;;5053239;28;20040;-78
2023/04/12 07:33:36;;;;;;;10.23;2.85;;;7.80;99.90;;;;;;5062507;28;20548;-77
2023/04/12 07:36:03;;;;;;;9.02;2.80;;;7.80;99.90;;;;;;5033669;28;20108;-78
2023/04/12 07:38:29;;;;;;;9.77;2.80;;;7.80;99.90;;;;;;5050703;28;20051;-77
2023/04/12 07:40:55;;;;;;;8.48;2.75;;;7.80;99.90;;;;;;5017351;28;20528;-77
2023/04/12 07:43:21;;;;;;;8.77;3.10;;;7.80;99.90;;;;;;5044606;28;20047;-77
2023/04/12 07:45:48;;;;;;;12.50;3.63;;;7.80;99.90;;;;;;5068355;28;20127;-77
2023/04/12 07:48:14;;;;;;;9.38;3.10;;;7.80;99.90;;;;;;5050666;28;20047;-78
2023/04/12 07:50:40;;;;;;;10.38;3.00;;;7.90;99.90;;;;;;5058544;28;20040;-78
2023/04/12 07:53:26;;;;;;;9.75;2.92;;;9.20;99.90;;;;;;5068661;28;20036;-77
2023/04/12 07:55:53;;;;;;;8.80;2.47;;;7.90;99.90;;;;;;5053216;28;20040;-77
2023/04/12 07:58:21;;;;;;;10.48;3.40;;;8.10;99.90;;;;;;5066870;28;20029;-77
2023/04/12 08:00:47;;;;;;;8.13;2.58;;;7.90;99.90;;;;;;5044366;28;20105;-77
2023/04/12 08:03:15;;;;;;;9.75;2.80;;;7.90;99.90;;;;;;5050579;28;20398;-77
2023/04/12 08:05:41;;;;;;;9.52;3.05;;;7.90;99.90;;;;;;5064047;28;20040;-77
2023/04/12 08:08:10;;;;;;;10.05;3.28;;;8.00;99.90;;;;;;5051641;28;20036;-77
2023/04/12 08:10:37;;;;;;;8.52;2.80;;;8.00;99.90;;;;;;5054876;28;20033;-77
2023/04/12 08:13:04;;;;;;;8.55;3.05;;;8.00;99.90;;;;;;5069737;28;20406;-77
2023/04/12 08:15:30;;;;;;;9.13;2.85;;;8.00;99.90;;;;;;5072222;28;20116;-77
2023/04/12 08:17:55;;;;;;;9.27;2.80;;;8.00;99.90;;;;;;5052862;28;20124;-77
2023/04/12 08:20:21;;;;;;;8.73;2.90;;;8.00;99.90;;;;;;5032240;28;20084;-77
2023/04/12 08:22:48;;;;;;;9.27;2.67;;;8.00;99.90;;;;;;5067964;28;20136;-77
2023/04/12 08:25:14;;;;;;;8.52;2.90;;;8.00;99.90;;;;;;5055900;28;20037;-77
2023/04/12 08:27:44;;;;;;;8.05;2.88;;;8.00;99.90;;;;;;5052918;28;20404;-77
2023/04/12 08:30:10;;;;;;;9.45;2.88;;;8.10;99.90;;;;;;5050479;28;20105;-77
2023/04/12 08:32:37;;;;;;;9.15;2.97;;;8.10;99.90;;;;;;5050676;28;20068;-77
2023/04/12 08:35:04;;;;;;;9.52;3.25;;;8.10;99.90;;;;;;5038774;28;20190;-77
2023/04/12 08:37:30;;;;;;;8.80;2.90;;;8.10;99.90;;;;;;5067771;28;20067;-77
2023/04/12 08:39:59;;;;;;;7.38;2.92;;;8.10;99.90;;;;;;5044958;28;20039;-77
2023/04/12 08:42:25;;;;;;;8.75;3.10;;;8.10;99.90;;;;;;5067987;28;20047;-77
2023/04/12 08:44:52;;;;;;;9.57;3.10;;;8.10;99.90;;;;;;5035824;28;20041;-77
2023/04/12 08:47:18;;;;;;;7.15;2.85;;;8.20;99.90;;;;;;5051432;28;20414;-77
2023/04/12 08:49:44;;;;;;;8.45;3.28;;;8.20;99.90;;;;;;5034163;28;20041;-77
2023/04/12 08:52:10;;;;;;;9.57;3.17;;;8.20;99.90;;;;;;5051297;28;20452;-78
2023/04/12 08:54:36;;;;;;;8.32;3.00;;;8.20;99.90;;;;;;5052140;28;20051;-77
2023/04/12 08:57:05;;;;;;;10.52;3.45;;;8.20;99.90;;;;;;5044637;28;20147;-77
2023/04/12 08:59:34;;;;;;;8.73;3.22;;;8.30;99.90;;;;;;5033149;28;20060;-77
2023/04/12 09:02:00;;;;;;;9.35;3.40;;;8.30;99.90;;;;;;5034972;28;20048;-77
2023/04/12 09:04:26;;;;;;;9.98;3.38;;;8.40;99.90;;;;;;5048631;28;20032;-77
2023/04/12 09:06:52;;;;;;;8.75;3.10;;;8.40;99.90;;;;;;5049105;28;20036;-76
2023/04/12 09:09:18;;;;;;;8.25;3.05;;;8.60;99.90;;;;;;5041812;28;20080;-77
2023/04/12 09:11:44;;;;;;;8.27;3.10;;;8.60;99.90;;;;;;5060326;28;20037;-77
2023/04/12 09:14:23;;;;;;;8.73;2.90;;;8.70;99.90;;;;;;5048594;28;20525;-77
2023/04/12 09:16:50;;;;;;;7.35;2.90;;;8.70;99.90;;;;;;5037466;28;20044;-77
2023/04/12 09:19:15;;;;;;;8.98;2.80;;;8.70;99.90;;;;;;5067978;28;20040;-77
2023/04/12 09:21:53;;;;;;;9.23;3.10;;;8.80;99.90;;;;;;5043971;28;20048;-77
2023/04/12 09:24:22;;;;;;;7.35;2.90;;;8.80;99.90;;;;;;5025844;28;20041;-77
2023/04/12 09:27:01;;;;;;;7.90;2.90;;;8.80;99.90;;;;;;5039898;28;20039;-77
2023/04/12 09:29:27;;;;;;;7.93;3.13;;;8.40;99.90;;;;;;5061839;28;20099;-77
2023/04/12 09:32:00;;;;;;;8.05;3.17;;;9.00;99.90;;;;;;5064458;28;20028;-77
2023/04/12 09:34:26;;;;;;;;;;;9.00;99.90;;;;;;5063969;28;20032;-77
2023/04/12 09:36:52;;;;;;;8.43;3.20;;;9.00;99.90;;;;;;5048223;28;19983;-77
2023/04/12 09:39:18;;;;;;;9.20;3.20;;;9.00;99.90;;;;;;5047566;28;20048;-77
2023/04/12 09:41:44;;;;;;;7.85;3.40;;;9.00;99.90;;;;;;5059453;28;20112;-77
2023/04/12 09:44:30;;;;;;;8.40;3.15;;;9.00;99.90;;;;;;5055414;28;20119;-77
2023/04/12 09:46:57;;;;;;;7.18;3.08;;;9.00;99.90;;;;;;5039648;28;20413;-77
2023/04/12 09:49:41;;;;;;;7.75;3.45;;;9.00;99.90;;;;;;5049830;28;20037;-77
2023/04/12 09:52:09;;;;;;;8.45;3.58;;;9.10;99.90;;;;;;5061747;28;20040;-77
2023/04/12 09:54:41;;;;;;;8.00;3.33;;;9.10;99.90;;;;;;5051989;28;20494;-77
2023/04/12 09:57:08;;;;;;;9.70;3.80;;;9.30;99.90;;;;;;5031353;28;20044;-77
2023/04/12 09:59:40;;;;;;;7.90;3.63;;;9.40;99.90;;;;;;5047716;28;20131;-77
2023/04/12 10:02:17;;;;;;;8.65;3.72;;;9.60;99.90;;;;;;5066695;28;20063;-77
2023/04/12 10:04:44;;;;;;;8.90;3.75;;;9.80;99.90;;;;;;5059425;28;20036;-77
2023/04/12 10:07:11;;;;;;;8.55;4.05;;;9.90;99.90;;;;;;5067612;28;20502;-77
2023/04/12 10:09:38;;;;;;;8.52;3.75;;;10.10;99.90;;;;;;5067518;28;20134;-77
2023/04/12 10:12:05;;;;;;;8.07;4.18;;;10.30;99.90;;;;;;5067414;28;20037;-77
2023/04/12 10:14:31;;;;;;;8.30;4.15;;;10.40;99.90;;;;;;5066353;28;20047;-77
2023/04/12 10:17:02;;;;;;;8.43;3.80;;;10.50;99.90;;;;;;5040692;28;20177;-77
2023/04/12 10:19:30;;;;;;;8.60;3.90;;;10.60;99.90;;;;;;5047877;28;20055;-77
2023/04/12 10:21:56;;;;;;;8.38;3.80;;;10.60;99.90;;;;;;5067472;28;20514;-77
2023/04/12 10:24:24;;;;;;;8.10;3.78;;;10.50;99.90;;;;;;5034511;28;20052;-77
2023/04/12 10:26:52;;;;;;;8.90;3.72;;;10.50;99.90;;;;;;5051316;28;20271;-77
2023/04/12 10:29:24;;;;;;;8.77;3.78;;;10.50;99.90;;;;;;5051336;28;20099;-77
2023/04/12 10:31:51;;;;;;;9.25;4.32;;;10.50;99.90;;;;;;5031199;28;20056;-76
2023/04/12 10:34:22;;;;;;;9.23;4.10;;;10.50;99.90;;;;;;5047633;28;20044;-76
2023/04/12 10:36:58;;;;;;;8.82;4.03;;;10.60;99.90;;;;;;5061417;28;20075;-76
2023/04/12 10:39:39;;;;;;;8.43;4.45;;;10.80;99.90;;;;;;5067270;28;20048;-77
2023/04/12 10:42:29;;;;;;;8.38;4.00;;;10.90;99.90;;;;;;5067873;28;20048;-76
2023/04/12 10:45:23;;;;;;;9.25;4.20;;;11.10;99.90;;;;;;5067542;28;20124;-76
2023/04/12 10:47:48;;;;;;;10.23;4.10;;;11.20;99.90;;;;;;5032198;28;20044;-76
2023/04/12 10:50:26;;;;;;;8.93;4.43;;;11.40;99.90;;;;;;5061336;28;20044;-76
2023/04/12 10:53:20;;;;;;;10.30;4.70;;;11.80;99.90;;;;;;5070177;28;20036;-76
2023/04/12 10:55:46;;;;;;;8.90;3.65;;;12.10;99.90;;;;;;5037638;28;20059;-77
2023/04/12 10:58:47;;;;;;;10.15;4.38;;;12.40;99.90;;;;;;5045267;28;20119;-77
2023/04/12 11:01:17;;;;;;;10.57;3.85;;;12.60;99.90;;;;;;5045850;28;20074;-76
2023/04/12 11:04:20;;;;;;;12.15;3.60;;;12.60;99.90;;;;;;5034865;28;20045;-76
2023/04/12 11:06:52;;;;;;;10.35;3.40;;;12.50;99.90;;;;;;5058965;28;20051;-76
2023/04/12 11:09:33;;;;;;;8.57;3.58;;;12.40;99.90;;;;;;5061611;28;20105;-76
2023/04/12 11:12:05;;;;;;;9.77;3.95;;;12.30;99.90;;;;;;5053098;28;20041;-76
2023/04/12 11:14:41;;;;;;;11.07;3.58;;;12.20;99.90;;;;;;5051363;28;20457;-76
2023/04/12 11:17:07;;;;;;;10.60;3.42;;;12.20;99.90;;;;;;5064182;28;20052;-76
2023/04/12 11:19:35;;;;;;;9.60;3.45;;;12.40;99.90;;;;;;5064551;28;20036;-76
2023/04/12 11:22:06;;;;;;;8.77;3.10;;;12.70;99.90;;;;;;5037888;28;20041;-77
2023/04/12 11:24:32;;;;;;;13.38;3.78;;;13.00;99.90;;;;;;5050740;28;20052;-76
2023/04/12 11:26:59;;;;;;;8.95;3.08;;;13.40;99.90;;;;;;5051753;28;20072;-76
2023/04/12 11:29:26;;;;;;;13.18;3.25;;;13.50;99.90;;;;;;5048174;28;20107;-76
2023/04/12 11:31:52;;;;;;;12.73;3.00;;;13.60;99.90;;;;;;5056117;28;20128;-76
2023/04/12 11:34:18;;;;;;;12.38;2.80;;;13.60;99.90;;;;;;5050291;28;20112;-77
2023/04/12 11:36:45;;;;;;;13.43;3.17;;;13.70;99.90;;;;;;5050366;28;20128;-77
2023/04/12 11:39:12;;;;;;;10.90;2.80;;;13.70;99.90;;;;;;5026717;28;20064;-77
2023/04/12 11:41:44;;;;;;;14.57;3.03;;;13.60;99.90;;;;;;5033559;28;20060;-77
2023/04/12 11:44:10;;;;;;;11.00;2.80;;;13.50;99.90;;;;;;5052032;28;20051;-76
2023/04/12 11:46:35;;;;;;;12.55;3.38;;;13.40;99.90;;;;;;5050226;28;20041;-77
2023/04/12 11:49:01;;;;;;;11.63;2.90;;;13.20;99.90;;;;;;5055263;28;20040;-76
2023/04/12 11:51:29;;;;;;;13.35;2.80;;;13.20;99.90;;;;;;5053358;28;20053;-77
2023/04/12 11:53:56;;;;;;;11.30;2.92;;;13.20;99.90;;;;;;5070200;28;20079;-77
2023/04/12 11:56:22;;;;;;;10.18;2.72;;;13.40;99.90;;;;;;5070411;28;20355;-77
2023/04/12 11:58:48;;;;;;;10.75;2.90;;;13.40;99.90;;;;;;5051788;28;20051;-77
2023/04/12 12:01:19;;;;;;;11.48;3.00;;;13.60;99.90;;;;;;5053351;28;20127;-77
2023/04/12 12:03:47;;;;;;;9.00;2.45;;;13.50;99.90;;;;;;5069963;28;20119;-77
2023/04/12 12:06:13;;;;;;;14.13;3.45;;;13.50;99.90;;;;;;5053182;28;20466;-77
2023/04/12 12:08:39;;;;;;;11.93;2.90;;;13.20;99.90;;;;;;5053154;28;20502;-77
2023/04/12 12:11:06;;;;;;;13.50;2.70;;;13.40;99.90;;;;;;5060634;28;20045;-77
2023/04/12 12:13:47;;;;;;;11.98;2.42;;;13.40;99.90;;;;;;5063956;28;20045;-76
2023/04/12 12:16:14;;;;;;;12.10;2.50;;;13.30;99.90;;;;;;5050016;28;20124;-77
2023/04/12 12:18:44;;;;;;;12.05;2.75;;;13.30;99.90;;;;;;5073546;28;20044;-77
2023/04/12 12:21:14;;;;;;;10.00;2.45;;;13.30;99.90;;;;;;5068063;28;20537;-77
2023/04/12 12:23:44;;;;;;;12.05;2.97;;;13.30;99.90;;;;;;5069688;28;20047;-77
2023/04/12 12:26:22;;;;;;;10.85;2.60;;;13.20;99.90;;;;;;5052859;28;20044;-77
2023/04/12 12:28:56;;;;;;;15.98;3.53;;;13.10;99.90;;;;;;5069325;28;20044;-77
2023/04/12 12:31:25;;;;;;;12.73;2.97;;;13.10;99.90;;;;;;5067610;28;20402;-76
2023/04/12 12:33:58;;;;;;;12.70;2.80;;;13.00;99.90;;;;;;5053919;28;20056;-76
2023/04/12 12:36:37;;;;;;;12.90;3.17;;;12.90;99.90;;;;;;5049125;28;20476;-76
2023/04/12 12:39:11;;;;;;;12.00;2.67;;;12.90;99.90;;;;;;5031538;28;20390;-76
2023/04/12 12:41:37;;;;;;;11.90;2.83;;;12.80;99.90;;;;;;5052857;28;20036;-76
2023/04/12 12:44:03;;;;;;;14.05;3.00;;;12.90;99.90;;;;;;5052762;28;20441;-76
2023/04/12 12:46:29;;;;;;;12.10;2.72;;;12.90;99.90;;;;;;5069183;28;20184;-77
2023/04/12 12:48:55;;;;;;;13.07;3.05;;;12.90;99.90;;;;;;5049224;28;20479;-76
2023/04/12 12:51:21;;;;;;;10.45;2.70;;;12.90;99.90;;;;;;5048280;28;20068;-77
2023/04/12 12:53:47;;;;;;;14.95;3.05;;;12.90;99.90;;;;;;5021363;28;20045;-77
2023/04/12 12:56:14;;;;;;;14.68;3.17;;;12.80;99.90;;;;;;5052465;28;20375;-77